Elberta, UT (84626)

5:58 PM MST on February 09, 2016 (GMT -0700)
Quail Run Farm | | Change Station
CLOSE
Current Station
Personal Weather Station
Location: Eagle Mountain, UT
Elevation: 4948 ft
Nearby Weather Stations

Elev 4948 ft 40.32 °N, 111.99 °W | Updated 11 minutes ago

Partly Cloudy
Partly Cloudy
29.3 °F
Feels Like 29 °F
N
0.0
Wind Variable Wind from SW

Today
High -- | Low -- °F
--% Chance of Precip.
Yesterday
High -- | Low -- °F
Precip. -- in
Pressure 30.51 in
Visibility 7.0 miles
Clouds Clear
Windchill 29 °F
Dew Point 22 °F
Humidity 74%
Rainfall 0.00 in
Snow Depth Not available.
7:28 AM 5:56 PM
Waxing Crescent, 3% visible
METAR KPVU 100047Z 00000KT 7SM HZ SKC M02/M06 A3051
Pressure 30.51 in
Visibility 7.0 miles
Clouds Clear
Windchill 29 °F
Dew Point 22 °F
Humidity 74%
Rainfall 0.00 in
Snow Depth Not available.
7:28 AM 5:56 PM
Waxing Crescent, 3% visible
METAR KPVU 100047Z 00000KT 7SM HZ SKC M02/M06 A3051

10-Day Weather Forecast

Almanac

Astronomy

Feb. 09, 2016 Rise Set
Actual Time
Civil Twilight
Nautical Twilight
Astronomical Twilight
Moon
Length of Visible Light
Length of Day
Tomorrow will be .
, % of the Moon is Illuminated

Today's Extremes

State Highs State Lows

Community

WunderPhotos

Upload Photos

1,891,752 photos uploaded!

WunderBlog® & News

Nearby

Air Quality

  Air Quality AQ Index Pollutant
Not available.

Snow Depth

Station Depth Elevation

Earthquake Activity

City Distance Mag. Time & Date
Minimum magnitude displayed is 2.5.

Coastal Water Temperatures

Place Temperature

Stations

Nearby Weather Stations

Station Location Temp. Windchill Dew Point Humidity Wind Precip. Elev Updated Type
                   

Watches & Warnings

There are currently no watches in effect.